sensor_id;sensor_type;location;lat;lon;timestamp;temperature;humidity
54576;DHT22;40472;53.486;14.542;2023-07-31T08:22:24;18.60;99.90
54576;DHT22;40472;53.486;14.542;2023-07-31T08:24:56;18.80;99.90
54576;DHT22;40472;53.486;14.542;2023-07-31T08:27:22;19.20;99.90
54576;DHT22;40472;53.486;14.542;2023-07-31T08:29:47;19.20;99.90
54576;DHT22;40472;53.486;14.542;2023-07-31T08:34:55;19.30;99.90
54576;DHT22;40472;53.486;14.542;2023-07-31T08:37:20;19.40;99.90
54576;DHT22;40472;53.486;14.542;2023-07-31T08:39:46;19.50;99.90
54576;DHT22;40472;53.486;14.542;2023-07-31T08:42:12;19.50;99.90
54576;DHT22;40472;53.486;14.542;2023-07-31T08:44:38;19.10;99.90
54576;DHT22;40472;53.486;14.542;2023-07-31T08:47:04;19.00;99.90
54576;DHT22;40472;53.486;14.542;2023-07-31T08:49:33;19.00;99.90
54576;DHT22;40472;53.486;14.542;2023-07-31T08:52:00;19.20;99.90
54576;DHT22;40472;53.486;14.542;2023-07-31T08:54:26;19.10;99.90
54576;DHT22;40472;53.486;14.542;2023-07-31T08:56:56;18.90;99.90
54576;DHT22;40472;53.486;14.542;2023-07-31T08:59:23;19.10;99.90
54576;DHT22;40472;53.486;14.542;2023-07-31T09:01:50;19.30;99.90
54576;DHT22;40472;53.486;14.542;2023-07-31T09:04:18;19.40;99.90
54576;DHT22;40472;53.486;14.542;2023-07-31T09:06:46;19.40;99.90
54576;DHT22;40472;53.486;14.542;2023-07-31T09:09:16;19.40;99.90
54576;DHT22;40472;53.486;14.542;2023-07-31T09:11:42;19.20;99.90
54576;DHT22;40472;53.486;14.542;2023-07-31T09:14:08;19.20;99.90
54576;DHT22;40472;53.486;14.542;2023-07-31T09:16:36;19.30;99.90
54576;DHT22;40472;53.486;14.542;2023-07-31T09:19:27;19.40;99.90
54576;DHT22;40472;53.486;14.542;2023-07-31T09:21:53;19.50;99.90
54576;DHT22;40472;53.486;14.542;2023-07-31T09:24:45;19.50;99.90
54576;DHT22;40472;53.486;14.542;2023-07-31T09:27:11;19.60;99.90
54576;DHT22;40472;53.486;14.542;2023-07-31T09:29:36;19.60;99.90
54576;DHT22;40472;53.486;14.542;2023-07-31T09:32:02;19.50;99.90
54576;DHT22;40472;53.486;14.542;2023-07-31T09:34:31;19.60;99.90
54576;DHT22;40472;53.486;14.542;2023-07-31T09:37:02;19.70;99.90
54576;DHT22;40472;53.486;14.542;2023-07-31T09:39:29;19.60;99.90
54576;DHT22;40472;53.486;14.542;2023-07-31T09:41:56;19.70;99.90
54576;DHT22;40472;53.486;14.542;2023-07-31T09:44:37;19.70;99.90
54576;DHT22;40472;53.486;14.542;2023-07-31T09:47:04;19.80;99.90
54576;DHT22;40472;53.486;14.542;2023-07-31T09:49:30;19.90;99.90
54576;DHT22;40472;53.486;14.542;2023-07-31T09:51:55;20.00;99.90
54576;DHT22;40472;53.486;14.542;2023-07-31T09:54:21;20.20;99.90
54576;DHT22;40472;53.486;14.542;2023-07-31T09:56:48;20.50;99.90
54576;DHT22;40472;53.486;14.542;2023-07-31T09:59:19;20.50;99.90
54576;DHT22;40472;53.486;14.542;2023-07-31T10:01:45;20.80;99.90
54576;DHT22;40472;53.486;14.542;2023-07-31T10:04:14;20.60;99.90
54576;DHT22;40472;53.486;14.542;2023-07-31T10:06:42;20.40;99.90
54576;DHT22;40472;53.486;14.542;2023-07-31T10:09:11;20.50;99.90
54576;DHT22;40472;53.486;14.542;2023-07-31T10:11:47;20.80;99.90
54576;DHT22;40472;53.486;14.542;2023-07-31T10:14:19;21.00;99.90
54576;DHT22;40472;53.486;14.542;2023-07-31T10:16:45;20.90;99.90
54576;DHT22;40472;53.486;14.542;2023-07-31T10:19:11;20.90;99.90
54576;DHT22;40472;53.486;14.542;2023-07-31T10:21:37;21.00;99.90
54576;DHT22;40472;53.486;14.542;2023-07-31T10:24:04;21.10;99.90
54576;DHT22;40472;53.486;14.542;2023-07-31T10:26:31;20.90;99.90
54576;DHT22;40472;53.486;14.542;2023-07-31T10:28:58;20.80;99.90
54576;DHT22;40472;53.486;14.542;2023-07-31T10:31:25;20.80;99.90
54576;DHT22;40472;53.486;14.542;2023-07-31T10:33:52;20.90;99.90
54576;DHT22;40472;53.486;14.542;2023-07-31T10:36:19;21.00;99.90
54576;DHT22;40472;53.486;14.542;2023-07-31T10:38:48;21.00;99.90
54576;DHT22;40472;53.486;14.542;2023-07-31T10:41:14;21.10;99.90
54576;DHT22;40472;53.486;14.542;2023-07-31T10:43:40;20.90;99.90
54576;DHT22;40472;53.486;14.542;2023-07-31T10:46:12;20.80;99.90
54576;DHT22;40472;53.486;14.542;2023-07-31T10:48:39;20.80;99.90
54576;DHT22;40472;53.486;14.542;2023-07-31T10:51:13;20.90;99.90
54576;DHT22;40472;53.486;14.542;2023-07-31T10:53:39;21.00;99.90
54576;DHT22;40472;53.486;14.542;2023-07-31T10:56:07;21.10;99.90
54576;DHT22;40472;53.486;14.542;2023-07-31T10:58:34;21.00;99.90
54576;DHT22;40472;53.486;14.542;2023-07-31T11:01:02;20.90;99.90
54576;DHT22;40472;53.486;14.542;2023-07-31T11:03:48;21.10;99.90
54576;DHT22;40472;53.486;14.542;2023-07-31T11:06:18;21.40;99.90
54576;DHT22;40472;53.486;14.542;2023-07-31T11:11:16;21.50;99.90
54576;DHT22;40472;53.486;14.542;2023-07-31T11:16:09;21.30;99.90
54576;DHT22;40472;53.486;14.542;2023-07-31T11:18:35;21.40;99.90
54576;DHT22;40472;53.486;14.542;2023-07-31T11:21:00;21.50;99.90
54576;DHT22;40472;53.486;14.542;2023-07-31T11:23:26;21.40;99.90
54576;DHT22;40472;53.486;14.542;2023-07-31T11:25:52;21.00;99.90
54576;DHT22;40472;53.486;14.542;2023-07-31T11:28:19;20.80;99.90
54576;DHT22;40472;53.486;14.542;2023-07-31T11:30:45;20.30;99.90
54576;DHT22;40472;53.486;14.542;2023-07-31T11:33:13;20.10;99.90
54576;DHT22;40472;53.486;14.542;2023-07-31T11:35:45;20.00;99.90
54576;DHT22;40472;53.486;14.542;2023-07-31T11:38:28;19.80;99.90
54576;DHT22;40472;53.486;14.542;2023-07-31T11:40:56;19.60;99.90
54576;DHT22;40472;53.486;14.542;2023-07-31T11:43:22;19.40;99.90
54576;DHT22;40472;53.486;14.542;2023-07-31T11:45:54;19.60;99.90
54576;DHT22;40472;53.486;14.542;2023-07-31T11:50:52;19.70;99.90
54576;DHT22;40472;53.486;14.542;2023-07-31T11:53:45;20.00;99.90
54576;DHT22;40472;53.486;14.542;2023-07-31T11:56:14;20.10;99.90
54576;DHT22;40472;53.486;14.542;2023-07-31T11:58:42;20.20;99.90
54576;DHT22;40472;53.486;14.542;2023-07-31T12:01:09;20.00;99.90
54576;DHT22;40472;53.486;14.542;2023-07-31T12:03:36;19.80;99.90
54576;DHT22;40472;53.486;14.542;2023-07-31T12:06:01;19.30;99.90
54576;DHT22;40472;53.486;14.542;2023-07-31T12:08:27;19.00;99.90
54576;DHT22;40472;53.486;14.542;2023-07-31T12:10:54;18.90;99.90
54576;DHT22;40472;53.486;14.542;2023-07-31T12:13:26;19.00;99.90
54576;DHT22;40472;53.486;14.542;2023-07-31T12:15:56;19.10;99.90
54576;DHT22;40472;53.486;14.542;2023-07-31T12:18:27;19.10;99.90
54576;DHT22;40472;53.486;14.542;2023-07-31T12:20:58;19.20;99.90
54576;DHT22;40472;53.486;14.542;2023-07-31T12:23:31;19.20;99.90
54576;DHT22;40472;53.486;14.542;2023-07-31T12:28:45;18.90;99.90
54576;DHT22;40472;53.486;14.542;2023-07-31T12:31:15;18.90;99.90
54576;DHT22;40472;53.486;14.542;2023-07-31T12:33:43;18.60;99.90
54576;DHT22;40472;53.486;14.542;2023-07-31T12:36:11;18.70;99.90
54576;DHT22;40472;53.486;14.542;2023-07-31T12:38:37;18.70;99.90
54576;DHT22;40472;53.486;14.542;2023-07-31T12:41:03;18.70;99.90
54576;DHT22;40472;53.486;14.542;2023-07-31T12:43:29;18.70;99.90
54576;DHT22;40472;53.486;14.542;2023-07-31T12:45:55;18.60;99.90
54576;DHT22;40472;53.486;14.542;2023-07-31T12:48:24;18.40;99.90
54576;DHT22;40472;53.486;14.542;2023-07-31T12:50:50;18.20;99.90
54576;DHT22;40472;53.486;14.542;2023-07-31T12:53:16;18.10;99.90
54576;DHT22;40472;53.486;14.542;2023-07-31T12:55:42;18.20;99.90
54576;DHT22;40472;53.486;14.542;2023-07-31T12:58:07;18.00;99.90
54576;DHT22;40472;53.486;14.542;2023-07-31T13:00:33;18.10;99.90
54576;DHT22;40472;53.486;14.542;2023-07-31T13:03:00;18.10;99.90
54576;DHT22;40472;53.486;14.542;2023-07-31T13:05:26;18.40;99.90
54576;DHT22;40472;53.486;14.542;2023-07-31T13:07:52;18.50;99.90
54576;DHT22;40472;53.486;14.542;2023-07-31T13:10:18;18.50;99.90
54576;DHT22;40472;53.486;14.542;2023-07-31T13:12:44;18.50;99.90
54576;DHT22;40472;53.486;14.542;2023-07-31T13:15:09;18.40;99.90
54576;DHT22;40472;53.486;14.542;2023-07-31T13:17:36;18.30;99.90
54576;DHT22;40472;53.486;14.542;2023-07-31T13:20:02;18.30;99.90
54576;DHT22;40472;53.486;14.542;2023-07-31T13:22:29;18.40;99.90
54576;DHT22;40472;53.486;14.542;2023-07-31T13:24:54;18.30;99.90
54576;DHT22;40472;53.486;14.542;2023-07-31T13:27:20;18.70;99.90
54576;DHT22;40472;53.486;14.542;2023-07-31T13:29:48;19.00;99.90
54576;DHT22;40472;53.486;14.542;2023-07-31T13:32:14;19.10;99.90
54576;DHT22;40472;53.486;14.542;2023-07-31T13:34:39;19.30;99.90
54576;DHT22;40472;53.486;14.542;2023-07-31T13:37:05;19.40;99.90
54576;DHT22;40472;53.486;14.542;2023-07-31T13:39:34;19.60;99.90
54576;DHT22;40472;53.486;14.542;2023-07-31T13:42:01;19.50;99.90
54576;DHT22;40472;53.486;14.542;2023-07-31T13:44:27;19.60;99.90
54576;DHT22;40472;53.486;14.542;2023-07-31T13:46:52;19.60;99.90
54576;DHT22;40472;53.486;14.542;2023-07-31T13:49:18;19.60;99.90
54576;DHT22;40472;53.486;14.542;2023-07-31T13:51:44;19.80;99.90
54576;DHT22;40472;53.486;14.542;2023-07-31T13:54:09;19.90;99.90
54576;DHT22;40472;53.486;14.542;2023-07-31T13:56:37;20.20;99.90
54576;DHT22;40472;53.486;14.542;2023-07-31T13:59:03;20.00;99.90
54576;DHT22;40472;53.486;14.542;2023-07-31T14:01:29;20.00;99.90
54576;DHT22;40472;53.486;14.542;2023-07-31T14:03:55;20.10;99.90
54576;DHT22;40472;53.486;14.542;2023-07-31T14:06:20;20.10;99.90
54576;DHT22;40472;53.486;14.542;2023-07-31T14:08:46;20.20;99.90
54576;DHT22;40472;53.486;14.542;2023-07-31T14:11:12;20.00;99.90
54576;DHT22;40472;53.486;14.542;2023-07-31T14:13:37;20.00;99.90
54576;DHT22;40472;53.486;14.542;2023-07-31T14:16:03;19.80;99.90
54576;DHT22;40472;53.486;14.542;2023-07-31T14:18:29;19.70;99.90
54576;DHT22;40472;53.486;14.542;2023-07-31T14:20:54;19.60;99.90
54576;DHT22;40472;53.486;14.542;2023-07-31T14:23:20;19.50;99.90
54576;DHT22;40472;53.486;14.542;2023-07-31T14:25:47;19.40;99.90
54576;DHT22;40472;53.486;14.542;2023-07-31T14:28:12;19.30;99.90
54576;DHT22;40472;53.486;14.542;2023-07-31T14:30:38;19.20;99.90
54576;DHT22;40472;53.486;14.542;2023-07-31T14:33:03;19.10;99.90
54576;DHT22;40472;53.486;14.542;2023-07-31T14:35:29;19.10;99.90
54576;DHT22;40472;53.486;14.542;2023-07-31T14:37:55;19.10;99.90
54576;DHT22;40472;53.486;14.542;2023-07-31T14:40:21;19.30;99.90
54576;DHT22;40472;53.486;14.542;2023-07-31T14:42:46;19.50;99.90
54576;DHT22;40472;53.486;14.542;2023-07-31T14:45:12;19.60;99.90
54576;DHT22;40472;53.486;14.542;2023-07-31T14:47:38;19.70;99.90
54576;DHT22;40472;53.486;14.542;2023-07-31T14:50:04;19.70;99.90
54576;DHT22;40472;53.486;14.542;2023-07-31T14:52:30;19.70;99.90
54576;DHT22;40472;53.486;14.542;2023-07-31T14:54:55;19.90;99.90
54576;DHT22;40472;53.486;14.542;2023-07-31T14:57:21;19.80;99.90
54576;DHT22;40472;53.486;14.542;2023-07-31T14:59:47;19.90;99.90
54576;DHT22;40472;53.486;14.542;2023-07-31T15:02:13;20.20;99.90
54576;DHT22;40472;53.486;14.542;2023-07-31T15:04:38;20.30;99.90
54576;DHT22;40472;53.486;14.542;2023-07-31T15:07:04;20.30;99.90
54576;DHT22;40472;53.486;14.542;2023-07-31T15:09:30;20.20;99.90
54576;DHT22;40472;53.486;14.542;2023-07-31T15:11:56;20.10;99.90
54576;DHT22;40472;53.486;14.542;2023-07-31T15:14:23;20.10;99.90
54576;DHT22;40472;53.486;14.542;2023-07-31T15:16:49;20.30;99.90
54576;DHT22;40472;53.486;14.542;2023-07-31T15:19:15;20.10;99.90
54576;DHT22;40472;53.486;14.542;2023-07-31T15:21:40;19.90;99.90
54576;DHT22;40472;53.486;14.542;2023-07-31T15:24:06;19.80;99.90
54576;DHT22;40472;53.486;14.542;2023-07-31T15:26:32;19.60;99.90
54576;DHT22;40472;53.486;14.542;2023-07-31T15:29:05;19.60;99.90
54576;DHT22;40472;53.486;14.542;2023-07-31T15:31:40;19.50;99.90
54576;DHT22;40472;53.486;14.542;2023-07-31T15:34:06;19.70;99.90
54576;DHT22;40472;53.486;14.542;2023-07-31T15:36:32;19.70;99.90
54576;DHT22;40472;53.486;14.542;2023-07-31T15:38:57;19.80;99.90
54576;DHT22;40472;53.486;14.542;2023-07-31T15:41:23;19.60;99.90
54576;DHT22;40472;53.486;14.542;2023-07-31T15:43:50;19.60;99.90
54576;DHT22;40472;53.486;14.542;2023-07-31T15:46:17;19.50;99.90
54576;DHT22;40472;53.486;14.542;2023-07-31T15:48:43;19.50;99.90
54576;DHT22;40472;53.486;14.542;2023-07-31T15:51:09;19.50;99.90
54576;DHT22;40472;53.486;14.542;2023-07-31T15:53:35;19.50;99.90
54576;DHT22;40472;53.486;14.542;2023-07-31T15:56:01;19.50;99.90
54576;DHT22;40472;53.486;14.542;2023-07-31T15:58:27;19.60;99.90
54576;DHT22;40472;53.486;14.542;2023-07-31T16:00:53;19.50;99.90
54576;DHT22;40472;53.486;14.542;2023-07-31T16:03:18;19.40;99.90
54576;DHT22;40472;53.486;14.542;2023-07-31T16:05:47;19.30;99.90
54576;DHT22;40472;53.486;14.542;2023-07-31T16:08:12;19.20;99.90
54576;DHT22;40472;53.486;14.542;2023-07-31T16:10:38;19.20;99.90
54576;DHT22;40472;53.486;14.542;2023-07-31T16:13:03;19.30;99.90
54576;DHT22;40472;53.486;14.542;2023-07-31T16:15:29;19.20;99.90
54576;DHT22;40472;53.486;14.542;2023-07-31T16:17:55;19.20;99.90
54576;DHT22;40472;53.486;14.542;2023-07-31T16:20:20;19.20;99.90
54576;DHT22;40472;53.486;14.542;2023-07-31T16:22:46;19.00;99.90
54576;DHT22;40472;53.486;14.542;2023-07-31T16:25:12;18.90;99.90
54576;DHT22;40472;53.486;14.542;2023-07-31T16:27:37;18.80;99.90
54576;DHT22;40472;53.486;14.542;2023-07-31T16:30:03;18.70;99.90
54576;DHT22;40472;53.486;14.542;2023-07-31T16:32:29;18.80;99.90
54576;DHT22;40472;53.486;14.542;2023-07-31T16:34:55;18.70;99.90
54576;DHT22;40472;53.486;14.542;2023-07-31T16:37:21;18.50;99.90
54576;DHT22;40472;53.486;14.542;2023-07-31T16:39:47;18.50;99.90
54576;DHT22;40472;53.486;14.542;2023-07-31T16:42:14;18.40;99.90
54576;DHT22;40472;53.486;14.542;2023-07-31T16:44:40;18.40;99.90
54576;DHT22;40472;53.486;14.542;2023-07-31T16:47:06;18.40;99.90
54576;DHT22;40472;53.486;14.542;2023-07-31T16:49:31;18.40;99.90
54576;DHT22;40472;53.486;14.542;2023-07-31T16:51:57;18.40;99.90
54576;DHT22;40472;53.486;14.542;2023-07-31T16:54:23;18.40;99.90
54576;DHT22;40472;53.486;14.542;2023-07-31T16:56:49;18.40;99.90
54576;DHT22;40472;53.486;14.542;2023-07-31T16:59:18;18.30;99.90
54576;DHT22;40472;53.486;14.542;2023-07-31T17:01:44;18.40;99.90
54576;DHT22;40472;53.486;14.542;2023-07-31T17:04:10;18.30;99.90
54576;DHT22;40472;53.486;14.542;2023-07-31T17:06:36;18.30;99.90
54576;DHT22;40472;53.486;14.542;2023-07-31T17:09:02;18.40;99.90
54576;DHT22;40472;53.486;14.542;2023-07-31T17:11:28;18.40;99.90
54576;DHT22;40472;53.486;14.542;2023-07-31T17:13:53;18.40;99.90
54576;DHT22;40472;53.486;14.542;2023-07-31T17:16:28;18.40;99.90
54576;DHT22;40472;53.486;14.542;2023-07-31T17:18:57;18.50;99.90
54576;DHT22;40472;53.486;14.542;2023-07-31T17:21:24;18.50;99.90
54576;DHT22;40472;53.486;14.542;2023-07-31T17:23:50;18.60;99.90
54576;DHT22;40472;53.486;14.542;2023-07-31T17:26:16;18.60;99.90
54576;DHT22;40472;53.486;14.542;2023-07-31T17:28:42;18.70;99.90
54576;DHT22;40472;53.486;14.542;2023-07-31T17:31:08;18.70;99.90
54576;DHT22;40472;53.486;14.542;2023-07-31T17:33:34;18.70;99.90
54576;DHT22;40472;53.486;14.542;2023-07-31T17:36:00;18.70;99.90
54576;DHT22;40472;53.486;14.542;2023-07-31T17:38:26;18.70;99.90
54576;DHT22;40472;53.486;14.542;2023-07-31T17:40:52;18.80;99.90
54576;DHT22;40472;53.486;14.542;2023-07-31T17:43:19;18.80;99.90
54576;DHT22;40472;53.486;14.542;2023-07-31T17:45:44;18.80;99.90
54576;DHT22;40472;53.486;14.542;2023-07-31T17:48:11;18.80;99.90
54576;DHT22;40472;53.486;14.542;2023-07-31T17:50:37;18.70;99.90
54576;DHT22;40472;53.486;14.542;2023-07-31T17:53:03;18.60;99.90
54576;DHT22;40472;53.486;14.542;2023-07-31T17:55:30;18.50;99.90
54576;DHT22;40472;53.486;14.542;2023-07-31T17:57:56;18.30;99.90
54576;DHT22;40472;53.486;14.542;2023-07-31T18:00:23;18.10;99.90
54576;DHT22;40472;53.486;14.542;2023-07-31T18:02:49;18.00;99.90
54576;DHT22;40472;53.486;14.542;2023-07-31T18:05:15;18.00;99.90
54576;DHT22;40472;53.486;14.542;2023-07-31T18:07:41;17.90;99.90
54576;DHT22;40472;53.486;14.542;2023-07-31T18:10:07;18.00;99.90
54576;DHT22;40472;53.486;14.542;2023-07-31T18:12:36;18.00;99.90
54576;DHT22;40472;53.486;14.542;2023-07-31T18:15:04;18.00;99.90
54576;DHT22;40472;53.486;14.542;2023-07-31T18:17:29;18.00;99.90
54576;DHT22;40472;53.486;14.542;2023-07-31T18:19:55;17.90;99.90
54576;DHT22;40472;53.486;14.542;2023-07-31T18:22:21;18.00;99.90
54576;DHT22;40472;53.486;14.542;2023-07-31T18:24:47;18.00;99.90
54576;DHT22;40472;53.486;14.542;2023-07-31T18:27:13;17.90;99.90
54576;DHT22;40472;53.486;14.542;2023-07-31T18:29:44;17.90;99.90
54576;DHT22;40472;53.486;14.542;2023-07-31T18:32:09;17.80;99.90
54576;DHT22;40472;53.486;14.542;2023-07-31T18:34:35;17.80;99.90
54576;DHT22;40472;53.486;14.542;2023-07-31T18:37:01;17.70;99.90
54576;DHT22;40472;53.486;14.542;2023-07-31T18:39:29;17.70;99.90
54576;DHT22;40472;53.486;14.542;2023-07-31T18:41:55;17.60;99.90
54576;DHT22;40472;53.486;14.542;2023-07-31T18:44:21;17.50;99.90
54576;DHT22;40472;53.486;14.542;2023-07-31T18:46:47;17.40;99.90
54576;DHT22;40472;53.486;14.542;2023-07-31T18:49:12;17.30;99.90
54576;DHT22;40472;53.486;14.542;2023-07-31T18:51:38;17.30;99.90
54576;DHT22;40472;53.486;14.542;2023-07-31T18:54:05;17.20;99.90
54576;DHT22;40472;53.486;14.542;2023-07-31T18:56:31;17.10;99.90
54576;DHT22;40472;53.486;14.542;2023-07-31T18:58:57;17.10;99.90
54576;DHT22;40472;53.486;14.542;2023-07-31T19:01:27;17.10;99.90
